sensor_id;sensor_type;location;lat;lon;timestamp;temperature;humidity
20066;DHT22;10193;48.884;9.182;2023-08-24T00:01:48;24.40;54.40
20066;DHT22;10193;48.884;9.182;2023-08-24T00:04:15;24.40;54.50
20066;DHT22;10193;48.884;9.182;2023-08-24T00:06:42;24.40;55.20
20066;DHT22;10193;48.884;9.182;2023-08-24T00:09:08;24.30;54.50
20066;DHT22;10193;48.884;9.182;2023-08-24T00:11:35;24.30;54.50
20066;DHT22;10193;48.884;9.182;2023-08-24T00:14:04;24.30;54.60
20066;DHT22;10193;48.884;9.182;2023-08-24T00:16:30;24.30;55.20
20066;DHT22;10193;48.884;9.182;2023-08-24T00:18:57;24.30;54.60
20066;DHT22;10193;48.884;9.182;2023-08-24T00:21:24;24.30;54.60
20066;DHT22;10193;48.884;9.182;2023-08-24T00:23:50;24.30;54.70
20066;DHT22;10193;48.884;9.182;2023-08-24T00:26:18;24.30;55.30
20066;DHT22;10193;48.884;9.182;2023-08-24T00:28:45;24.30;54.80
20066;DHT22;10193;48.884;9.182;2023-08-24T00:31:15;24.30;54.80
20066;DHT22;10193;48.884;9.182;2023-08-24T00:33:41;24.30;55.00
20066;DHT22;10193;48.884;9.182;2023-08-24T00:36:08;24.30;54.90
20066;DHT22;10193;48.884;9.182;2023-08-24T00:38:35;24.20;54.90
20066;DHT22;10193;48.884;9.182;2023-08-24T00:41:02;24.20;55.00
20066;DHT22;10193;48.884;9.182;2023-08-24T00:43:29;24.20;55.10
20066;DHT22;10193;48.884;9.182;2023-08-24T00:45:59;24.20;55.20
20066;DHT22;10193;48.884;9.182;2023-08-24T00:48:27;24.20;55.30
20066;DHT22;10193;48.884;9.182;2023-08-24T00:50:55;24.10;55.30
20066;DHT22;10193;48.884;9.182;2023-08-24T00:53:22;24.10;55.30
20066;DHT22;10193;48.884;9.182;2023-08-24T00:55:51;24.10;55.40
20066;DHT22;10193;48.884;9.182;2023-08-24T00:58:17;24.10;55.60
20066;DHT22;10193;48.884;9.182;2023-08-24T01:00:45;24.10;55.70
20066;DHT22;10193;48.884;9.182;2023-08-24T01:03:12;24.00;55.80
20066;DHT22;10193;48.884;9.182;2023-08-24T01:05:40;24.00;55.90
20066;DHT22;10193;48.884;9.182;2023-08-24T01:08:06;24.00;56.00
20066;DHT22;10193;48.884;9.182;2023-08-24T01:10:40;23.90;56.00
20066;DHT22;10193;48.884;9.182;2023-08-24T01:13:09;23.90;56.30
20066;DHT22;10193;48.884;9.182;2023-08-24T01:15:42;23.90;56.10
20066;DHT22;10193;48.884;9.182;2023-08-24T01:18:14;23.90;56.30
20066;DHT22;10193;48.884;9.182;2023-08-24T01:20:44;23.90;56.40
20066;DHT22;10193;48.884;9.182;2023-08-24T01:23:19;23.80;56.40
20066;DHT22;10193;48.884;9.182;2023-08-24T01:25:52;23.80;56.70
20066;DHT22;10193;48.884;9.182;2023-08-24T01:28:21;23.80;56.40
20066;DHT22;10193;48.884;9.182;2023-08-24T01:30:48;23.70;56.50
20066;DHT22;10193;48.884;9.182;2023-08-24T01:33:15;23.70;56.50
20066;DHT22;10193;48.884;9.182;2023-08-24T01:35:41;23.70;56.60
20066;DHT22;10193;48.884;9.182;2023-08-24T01:38:08;23.70;56.70
20066;DHT22;10193;48.884;9.182;2023-08-24T01:40:45;23.60;56.70
20066;DHT22;10193;48.884;9.182;2023-08-24T01:43:13;23.60;56.90
20066;DHT22;10193;48.884;9.182;2023-08-24T01:45:42;23.60;56.90
20066;DHT22;10193;48.884;9.182;2023-08-24T01:48:10;23.50;56.90
20066;DHT22;10193;48.884;9.182;2023-08-24T01:50:37;23.50;57.00
20066;DHT22;10193;48.884;9.182;2023-08-24T01:53:05;23.50;57.00
20066;DHT22;10193;48.884;9.182;2023-08-24T01:55:32;23.40;57.00
20066;DHT22;10193;48.884;9.182;2023-08-24T01:57:58;23.40;57.10
20066;DHT22;10193;48.884;9.182;2023-08-24T02:00:25;23.30;57.20
20066;DHT22;10193;48.884;9.182;2023-08-24T02:02:53;23.30;57.30
20066;DHT22;10193;48.884;9.182;2023-08-24T02:05:20;23.30;57.40
20066;DHT22;10193;48.884;9.182;2023-08-24T02:07:46;23.20;57.40
20066;DHT22;10193;48.884;9.182;2023-08-24T02:10:13;23.30;57.60
20066;DHT22;10193;48.884;9.182;2023-08-24T02:12:40;23.20;57.50
20066;DHT22;10193;48.884;9.182;2023-08-24T02:15:07;23.20;57.60
20066;DHT22;10193;48.884;9.182;2023-08-24T02:17:34;23.20;57.70
20066;DHT22;10193;48.884;9.182;2023-08-24T02:20:02;23.20;58.30
20066;DHT22;10193;48.884;9.182;2023-08-24T02:22:30;23.10;58.30
20066;DHT22;10193;48.884;9.182;2023-08-24T02:24:57;23.10;57.80
20066;DHT22;10193;48.884;9.182;2023-08-24T02:27:24;23.20;57.90
20066;DHT22;10193;48.884;9.182;2023-08-24T02:29:50;23.20;58.00
20066;DHT22;10193;48.884;9.182;2023-08-24T02:32:17;23.10;57.90
20066;DHT22;10193;48.884;9.182;2023-08-24T02:34:44;23.20;58.10
20066;DHT22;10193;48.884;9.182;2023-08-24T02:37:11;23.10;58.00
20066;DHT22;10193;48.884;9.182;2023-08-24T02:39:38;23.20;58.10
20066;DHT22;10193;48.884;9.182;2023-08-24T02:42:05;23.20;58.20
20066;DHT22;10193;48.884;9.182;2023-08-24T02:44:32;23.20;58.30
20066;DHT22;10193;48.884;9.182;2023-08-24T02:46:58;23.20;58.30
20066;DHT22;10193;48.884;9.182;2023-08-24T02:49:25;23.30;58.40
20066;DHT22;10193;48.884;9.182;2023-08-24T02:51:52;23.30;58.40
20066;DHT22;10193;48.884;9.182;2023-08-24T02:54:20;23.30;58.50
20066;DHT22;10193;48.884;9.182;2023-08-24T02:56:46;23.30;58.50
20066;DHT22;10193;48.884;9.182;2023-08-24T02:59:13;23.30;58.50
20066;DHT22;10193;48.884;9.182;2023-08-24T03:01:40;23.30;58.50
20066;DHT22;10193;48.884;9.182;2023-08-24T03:04:07;23.30;58.50
20066;DHT22;10193;48.884;9.182;2023-08-24T03:06:33;23.30;58.50
20066;DHT22;10193;48.884;9.182;2023-08-24T03:09:01;23.30;58.50
20066;DHT22;10193;48.884;9.182;2023-08-24T03:11:30;23.30;58.50
20066;DHT22;10193;48.884;9.182;2023-08-24T03:13:57;23.30;58.50
20066;DHT22;10193;48.884;9.182;2023-08-24T03:16:24;23.30;58.50
20066;DHT22;10193;48.884;9.182;2023-08-24T03:18:50;23.30;58.60
20066;DHT22;10193;48.884;9.182;2023-08-24T03:21:17;23.30;58.60
20066;DHT22;10193;48.884;9.182;2023-08-24T03:23:44;23.30;58.60
20066;DHT22;10193;48.884;9.182;2023-08-24T03:26:10;23.20;58.50
20066;DHT22;10193;48.884;9.182;2023-08-24T03:28:38;23.20;58.50
20066;DHT22;10193;48.884;9.182;2023-08-24T03:31:06;23.20;58.60
20066;DHT22;10193;48.884;9.182;2023-08-24T03:33:33;23.10;58.60
20066;DHT22;10193;48.884;9.182;2023-08-24T03:36:00;23.10;58.60
20066;DHT22;10193;48.884;9.182;2023-08-24T03:38:27;23.10;58.70
20066;DHT22;10193;48.884;9.182;2023-08-24T03:40:59;23.10;59.40
20066;DHT22;10193;48.884;9.182;2023-08-24T03:43:26;23.00;59.00
20066;DHT22;10193;48.884;9.182;2023-08-24T03:45:54;23.10;59.00
20066;DHT22;10193;48.884;9.182;2023-08-24T03:48:21;23.10;59.10
20066;DHT22;10193;48.884;9.182;2023-08-24T03:50:47;23.00;59.10
20066;DHT22;10193;48.884;9.182;2023-08-24T03:53:14;23.00;59.20
20066;DHT22;10193;48.884;9.182;2023-08-24T03:55:41;23.00;59.40
20066;DHT22;10193;48.884;9.182;2023-08-24T03:58:07;23.00;59.30
20066;DHT22;10193;48.884;9.182;2023-08-24T04:00:34;23.00;59.40
20066;DHT22;10193;48.884;9.182;2023-08-24T04:03:02;23.00;59.50
20066;DHT22;10193;48.884;9.182;2023-08-24T04:05:29;23.00;59.50
20066;DHT22;10193;48.884;9.182;2023-08-24T04:07:56;23.00;59.50
20066;DHT22;10193;48.884;9.182;2023-08-24T04:10:22;23.00;59.60
20066;DHT22;10193;48.884;9.182;2023-08-24T04:12:49;23.00;59.60
20066;DHT22;10193;48.884;9.182;2023-08-24T04:15:16;23.00;59.60
20066;DHT22;10193;48.884;9.182;2023-08-24T04:17:43;23.00;59.70
20066;DHT22;10193;48.884;9.182;2023-08-24T04:20:12;22.90;59.60
20066;DHT22;10193;48.884;9.182;2023-08-24T04:22:39;22.90;59.70
20066;DHT22;10193;48.884;9.182;2023-08-24T04:25:06;22.90;59.70
20066;DHT22;10193;48.884;9.182;2023-08-24T04:27:33;22.90;59.70
20066;DHT22;10193;48.884;9.182;2023-08-24T04:30:00;22.90;59.80
20066;DHT22;10193;48.884;9.182;2023-08-24T04:32:27;22.90;59.80
20066;DHT22;10193;48.884;9.182;2023-08-24T04:34:54;22.90;59.80
20066;DHT22;10193;48.884;9.182;2023-08-24T04:37:22;22.90;59.80
20066;DHT22;10193;48.884;9.182;2023-08-24T04:39:48;22.90;59.90
20066;DHT22;10193;48.884;9.182;2023-08-24T04:42:15;22.80;59.80
20066;DHT22;10193;48.884;9.182;2023-08-24T04:44:42;22.80;59.90
20066;DHT22;10193;48.884;9.182;2023-08-24T04:47:08;22.80;60.00
20066;DHT22;10193;48.884;9.182;2023-08-24T04:49:36;22.80;60.00
20066;DHT22;10193;48.884;9.182;2023-08-24T04:52:03;22.80;60.00
20066;DHT22;10193;48.884;9.182;2023-08-24T04:54:32;22.80;60.00
20066;DHT22;10193;48.884;9.182;2023-08-24T04:56:58;22.70;60.00
20066;DHT22;10193;48.884;9.182;2023-08-24T04:59:25;22.70;60.00
20066;DHT22;10193;48.884;9.182;2023-08-24T05:01:51;22.60;60.00
20066;DHT22;10193;48.884;9.182;2023-08-24T05:04:18;22.60;60.10
20066;DHT22;10193;48.884;9.182;2023-08-24T05:06:45;22.60;60.30
20066;DHT22;10193;48.884;9.182;2023-08-24T05:09:11;22.50;60.40
20066;DHT22;10193;48.884;9.182;2023-08-24T05:11:39;22.50;60.50
20066;DHT22;10193;48.884;9.182;2023-08-24T05:14:06;22.60;60.80
20066;DHT22;10193;48.884;9.182;2023-08-24T05:16:33;22.60;61.00
20066;DHT22;10193;48.884;9.182;2023-08-24T05:19:00;22.60;61.00
20066;DHT22;10193;48.884;9.182;2023-08-24T05:21:28;22.50;61.00
20066;DHT22;10193;48.884;9.182;2023-08-24T05:23:55;22.60;61.10
20066;DHT22;10193;48.884;9.182;2023-08-24T05:26:21;22.60;61.20
20066;DHT22;10193;48.884;9.182;2023-08-24T05:28:52;22.60;61.30
20066;DHT22;10193;48.884;9.182;2023-08-24T05:31:19;22.60;61.60
20066;DHT22;10193;48.884;9.182;2023-08-24T05:33:46;22.60;61.70
20066;DHT22;10193;48.884;9.182;2023-08-24T05:36:12;22.70;62.10
20066;DHT22;10193;48.884;9.182;2023-08-24T05:38:39;22.80;62.30
20066;DHT22;10193;48.884;9.182;2023-08-24T05:41:10;22.90;62.40
20066;DHT22;10193;48.884;9.182;2023-08-24T05:43:36;23.00;62.50
20066;DHT22;10193;48.884;9.182;2023-08-24T05:46:04;23.10;62.50
20066;DHT22;10193;48.884;9.182;2023-08-24T05:48:31;23.30;62.70
20066;DHT22;10193;48.884;9.182;2023-08-24T05:50:58;23.40;62.90
20066;DHT22;10193;48.884;9.182;2023-08-24T05:53:24;23.60;62.80
20066;DHT22;10193;48.884;9.182;2023-08-24T05:55:51;23.70;62.40
20066;DHT22;10193;48.884;9.182;2023-08-24T05:58:18;23.80;62.10
20066;DHT22;10193;48.884;9.182;2023-08-24T06:00:44;23.90;61.80
20066;DHT22;10193;48.884;9.182;2023-08-24T06:03:13;24.00;61.80
20066;DHT22;10193;48.884;9.182;2023-08-24T06:05:40;24.10;61.80
20066;DHT22;10193;48.884;9.182;2023-08-24T06:08:07;24.10;61.80
20066;DHT22;10193;48.884;9.182;2023-08-24T06:10:33;24.20;61.80
20066;DHT22;10193;48.884;9.182;2023-08-24T06:13:00;24.30;62.70
20066;DHT22;10193;48.884;9.182;2023-08-24T06:15:27;24.30;61.70
20066;DHT22;10193;48.884;9.182;2023-08-24T06:17:54;24.40;61.90
20066;DHT22;10193;48.884;9.182;2023-08-24T06:20:22;24.50;61.90
20066;DHT22;10193;48.884;9.182;2023-08-24T06:22:49;24.60;62.20
20066;DHT22;10193;48.884;9.182;2023-08-24T06:25:16;24.70;62.10
20066;DHT22;10193;48.884;9.182;2023-08-24T06:27:43;24.90;61.90
20066;DHT22;10193;48.884;9.182;2023-08-24T06:30:10;25.00;62.50
20066;DHT22;10193;48.884;9.182;2023-08-24T06:32:37;25.10;61.30
20066;DHT22;10193;48.884;9.182;2023-08-24T06:35:05;25.20;61.40
20066;DHT22;10193;48.884;9.182;2023-08-24T06:37:33;25.40;61.10
20066;DHT22;10193;48.884;9.182;2023-08-24T06:40:00;25.50;60.40
20066;DHT22;10193;48.884;9.182;2023-08-24T06:42:28;25.60;59.90
20066;DHT22;10193;48.884;9.182;2023-08-24T06:44:55;25.70;59.60
20066;DHT22;10193;48.884;9.182;2023-08-24T06:47:21;25.70;59.20
20066;DHT22;10193;48.884;9.182;2023-08-24T06:49:48;25.80;58.90
20066;DHT22;10193;48.884;9.182;2023-08-24T06:52:15;25.80;58.60
20066;DHT22;10193;48.884;9.182;2023-08-24T06:54:43;25.80;58.40
20066;DHT22;10193;48.884;9.182;2023-08-24T06:57:10;25.70;58.30
20066;DHT22;10193;48.884;9.182;2023-08-24T06:59:36;25.70;58.30
20066;DHT22;10193;48.884;9.182;2023-08-24T07:02:03;25.70;58.30
20066;DHT22;10193;48.884;9.182;2023-08-24T07:04:30;25.60;58.30
20066;DHT22;10193;48.884;9.182;2023-08-24T07:06:57;25.60;58.50
20066;DHT22;10193;48.884;9.182;2023-08-24T07:09:23;25.50;58.50
20066;DHT22;10193;48.884;9.182;2023-08-24T07:11:51;25.50;58.70
20066;DHT22;10193;48.884;9.182;2023-08-24T07:14:18;25.40;58.70
20066;DHT22;10193;48.884;9.182;2023-08-24T07:16:45;25.40;58.80
20066;DHT22;10193;48.884;9.182;2023-08-24T07:19:12;25.30;59.10
20066;DHT22;10193;48.884;9.182;2023-08-24T07:21:38;25.40;59.50
20066;DHT22;10193;48.884;9.182;2023-08-24T07:24:05;25.40;59.40
20066;DHT22;10193;48.884;9.182;2023-08-24T07:26:33;25.50;59.30
20066;DHT22;10193;48.884;9.182;2023-08-24T07:29:01;25.60;59.50
20066;DHT22;10193;48.884;9.182;2023-08-24T07:31:28;25.60;58.60
20066;DHT22;10193;48.884;9.182;2023-08-24T07:33:54;25.60;58.40
20066;DHT22;10193;48.884;9.182;2023-08-24T07:36:21;25.70;58.30
20066;DHT22;10193;48.884;9.182;2023-08-24T07:38:48;25.60;58.10
20066;DHT22;10193;48.884;9.182;2023-08-24T07:41:14;25.70;58.00
20066;DHT22;10193;48.884;9.182;2023-08-24T07:43:43;25.70;58.00
20066;DHT22;10193;48.884;9.182;2023-08-24T07:46:11;25.70;58.00
20066;DHT22;10193;48.884;9.182;2023-08-24T07:48:38;25.70;58.10
20066;DHT22;10193;48.884;9.182;2023-08-24T07:51:07;25.70;58.30
20066;DHT22;10193;48.884;9.182;2023-08-24T07:53:34;25.80;58.50
20066;DHT22;10193;48.884;9.182;2023-08-24T07:56:00;25.90;58.50
20066;DHT22;10193;48.884;9.182;2023-08-24T07:58:27;25.90;58.30
20066;DHT22;10193;48.884;9.182;2023-08-24T08:00:56;26.00;58.10
20066;DHT22;10193;48.884;9.182;2023-08-24T08:03:24;26.00;58.00
20066;DHT22;10193;48.884;9.182;2023-08-24T08:05:51;26.00;57.80
20066;DHT22;10193;48.884;9.182;2023-08-24T08:08:18;26.10;57.70
20066;DHT22;10193;48.884;9.182;2023-08-24T08:10:44;26.20;57.70
20066;DHT22;10193;48.884;9.182;2023-08-24T08:13:11;26.20;57.70
20066;DHT22;10193;48.884;9.182;2023-08-24T08:15:38;26.30;57.70
20066;DHT22;10193;48.884;9.182;2023-08-24T08:18:05;26.40;57.60
20066;DHT22;10193;48.884;9.182;2023-08-24T08:20:33;26.50;57.50
20066;DHT22;10193;48.884;9.182;2023-08-24T08:22:59;26.50;57.50
20066;DHT22;10193;48.884;9.182;2023-08-24T08:25:26;26.60;58.20
20066;DHT22;10193;48.884;9.182;2023-08-24T08:27:53;26.70;57.60
20066;DHT22;10193;48.884;9.182;2023-08-24T08:30:20;26.80;57.60
20066;DHT22;10193;48.884;9.182;2023-08-24T08:32:47;27.00;57.40
20066;DHT22;10193;48.884;9.182;2023-08-24T08:35:14;27.10;57.20
20066;DHT22;10193;48.884;9.182;2023-08-24T08:37:42;27.20;57.00
20066;DHT22;10193;48.884;9.182;2023-08-24T08:40:10;27.30;56.80
20066;DHT22;10193;48.884;9.182;2023-08-24T08:42:37;27.30;56.80
20066;DHT22;10193;48.884;9.182;2023-08-24T08:45:09;27.40;57.10
20066;DHT22;10193;48.884;9.182;2023-08-24T08:47:36;27.50;56.10
20066;DHT22;10193;48.884;9.182;2023-08-24T08:50:03;27.50;55.90
20066;DHT22;10193;48.884;9.182;2023-08-24T08:52:31;27.60;55.80
20066;DHT22;10193;48.884;9.182;2023-08-24T08:55:00;27.60;55.70
20066;DHT22;10193;48.884;9.182;2023-08-24T08:57:26;27.70;55.80
20066;DHT22;10193;48.884;9.182;2023-08-24T08:59:53;27.70;55.70
20066;DHT22;10193;48.884;9.182;2023-08-24T09:02:21;27.80;55.70
20066;DHT22;10193;48.884;9.182;2023-08-24T09:04:51;27.80;55.60
20066;DHT22;10193;48.884;9.182;2023-08-24T09:07:17;27.80;55.50
20066;DHT22;10193;48.884;9.182;2023-08-24T09:09:46;27.90;55.50
20066;DHT22;10193;48.884;9.182;2023-08-24T09:12:14;27.90;55.40
20066;DHT22;10193;48.884;9.182;2023-08-24T09:14:40;27.90;55.40
20066;DHT22;10193;48.884;9.182;2023-08-24T09:17:07;28.00;55.40
20066;DHT22;10193;48.884;9.182;2023-08-24T09:19:34;28.10;55.30
20066;DHT22;10193;48.884;9.182;2023-08-24T09:22:04;28.20;55.30
20066;DHT22;10193;48.884;9.182;2023-08-24T09:24:31;28.20;55.20
20066;DHT22;10193;48.884;9.182;2023-08-24T09:26:59;28.30;55.00
20066;DHT22;10193;48.884;9.182;2023-08-24T09:29:27;28.30;55.00
20066;DHT22;10193;48.884;9.182;2023-08-24T09:31:53;28.40;54.90
20066;DHT22;10193;48.884;9.182;2023-08-24T09:34:22;28.50;55.00
20066;DHT22;10193;48.884;9.182;2023-08-24T09:36:52;28.50;55.00
20066;DHT22;10193;48.884;9.182;2023-08-24T09:39:18;28.60;54.90
20066;DHT22;10193;48.884;9.182;2023-08-24T09:41:49;28.60;54.70
20066;DHT22;10193;48.884;9.182;2023-08-24T09:44:17;28.70;54.70
20066;DHT22;10193;48.884;9.182;2023-08-24T09:46:45;28.70;54.70
20066;DHT22;10193;48.884;9.182;2023-08-24T09:49:12;28.80;54.60
20066;DHT22;10193;48.884;9.182;2023-08-24T09:51:40;28.80;54.60
20066;DHT22;10193;48.884;9.182;2023-08-24T09:54:08;28.80;54.70
20066;DHT22;10193;48.884;9.182;2023-08-24T09:56:36;28.90;54.70
20066;DHT22;10193;48.884;9.182;2023-08-24T09:59:10;29.00;54.70
20066;DHT22;10193;48.884;9.182;2023-08-24T10:01:37;29.00;55.40
20066;DHT22;10193;48.884;9.182;2023-08-24T10:04:07;29.10;55.00
20066;DHT22;10193;48.884;9.182;2023-08-24T10:06:36;29.20;54.70
20066;DHT22;10193;48.884;9.182;2023-08-24T10:09:07;29.30;54.70
20066;DHT22;10193;48.884;9.182;2023-08-24T10:11:35;29.40;54.90
20066;DHT22;10193;48.884;9.182;2023-08-24T10:14:07;29.50;54.70
20066;DHT22;10193;48.884;9.182;2023-08-24T10:16:36;29.60;54.40
20066;DHT22;10193;48.884;9.182;2023-08-24T10:19:05;29.70;54.50
20066;DHT22;10193;48.884;9.182;2023-08-24T10:21:33;29.80;54.30
20066;DHT22;10193;48.884;9.182;2023-08-24T10:24:02;29.90;54.10
20066;DHT22;10193;48.884;9.182;2023-08-24T10:26:28;30.00;54.10
20066;DHT22;10193;48.884;9.182;2023-08-24T10:28:56;30.10;54.10
20066;DHT22;10193;48.884;9.182;2023-08-24T10:31:23;30.10;53.90
20066;DHT22;10193;48.884;9.182;2023-08-24T10:33:51;30.30;54.00
20066;DHT22;10193;48.884;9.182;2023-08-24T10:36:19;30.40;54.10
20066;DHT22;10193;48.884;9.182;2023-08-24T10:38:47;30.50;53.90
20066;DHT22;10193;48.884;9.182;2023-08-24T10:41:14;30.50;53.80
20066;DHT22;10193;48.884;9.182;2023-08-24T10:43:41;30.70;53.80
20066;DHT22;10193;48.884;9.182;2023-08-24T10:46:12;30.80;53.80
20066;DHT22;10193;48.884;9.182;2023-08-24T10:48:57;30.90;53.60
20066;DHT22;10193;48.884;9.182;2023-08-24T10:51:26;31.00;53.70
20066;DHT22;10193;48.884;9.182;2023-08-24T10:53:56;31.10;53.40
20066;DHT22;10193;48.884;9.182;2023-08-24T10:56:30;31.20;53.30
20066;DHT22;10193;48.884;9.182;2023-08-24T10:59:11;31.30;52.80
20066;DHT22;10193;48.884;9.182;2023-08-24T11:01:40;31.40;52.60
20066;DHT22;10193;48.884;9.182;2023-08-24T11:04:07;31.60;52.90
20066;DHT22;10193;48.884;9.182;2023-08-24T11:06:51;31.60;52.80
20066;DHT22;10193;48.884;9.182;2023-08-24T11:09:18;31.70;52.50
20066;DHT22;10193;48.884;9.182;2023-08-24T11:11:55;31.90;52.70
20066;DHT22;10193;48.884;9.182;2023-08-24T11:14:23;31.90;52.50
20066;DHT22;10193;48.884;9.182;2023-08-24T11:16:52;32.00;52.30
20066;DHT22;10193;48.884;9.182;2023-08-24T11:19:18;32.10;52.40
20066;DHT22;10193;48.884;9.182;2023-08-24T11:21:46;32.10;52.20
20066;DHT22;10193;48.884;9.182;2023-08-24T11:24:14;32.20;52.20
20066;DHT22;10193;48.884;9.182;2023-08-24T11:26:42;32.20;52.10
20066;DHT22;10193;48.884;9.182;2023-08-24T11:29:09;32.30;52.10
20066;DHT22;10193;48.884;9.182;2023-08-24T11:31:36;32.30;51.90
20066;DHT22;10193;48.884;9.182;2023-08-24T11:34:03;32.40;51.90
20066;DHT22;10193;48.884;9.182;2023-08-24T11:36:31;32.40;51.70
20066;DHT22;10193;48.884;9.182;2023-08-24T11:38:59;32.50;51.80
20066;DHT22;10193;48.884;9.182;2023-08-24T11:41:26;32.50;51.80
20066;DHT22;10193;48.884;9.182;2023-08-24T11:44:02;32.50;51.80
20066;DHT22;10193;48.884;9.182;2023-08-24T11:46:29;32.60;51.60
20066;DHT22;10193;48.884;9.182;2023-08-24T11:48:58;32.60;51.70
20066;DHT22;10193;48.884;9.182;2023-08-24T11:51:25;32.70;51.80
20066;DHT22;10193;48.884;9.182;2023-08-24T11:53:52;32.80;51.70
20066;DHT22;10193;48.884;9.182;2023-08-24T11:56:20;32.80;51.50
20066;DHT22;10193;48.884;9.182;2023-08-24T11:58:49;32.80;51.40
20066;DHT22;10193;48.884;9.182;2023-08-24T12:01:17;32.90;51.50
20066;DHT22;10193;48.884;9.182;2023-08-24T12:03:44;32.90;51.60
20066;DHT22;10193;48.884;9.182;2023-08-24T12:06:12;33.00;51.50
20066;DHT22;10193;48.884;9.182;2023-08-24T12:08:39;33.10;51.40
20066;DHT22;10193;48.884;9.182;2023-08-24T12:11:13;33.10;51.20
20066;DHT22;10193;48.884;9.182;2023-08-24T12:13:45;33.20;51.00
20066;DHT22;10193;48.884;9.182;2023-08-24T12:16:12;33.20;51.00
20066;DHT22;10193;48.884;9.182;2023-08-24T12:18:54;33.30;51.10
20066;DHT22;10193;48.884;9.182;2023-08-24T12:21:21;33.40;50.80
20066;DHT22;10193;48.884;9.182;2023-08-24T12:23:58;33.50;51.10
20066;DHT22;10193;48.884;9.182;2023-08-24T12:26:25;33.50;50.90
20066;DHT22;10193;48.884;9.182;2023-08-24T12:28:55;33.70;51.00
20066;DHT22;10193;48.884;9.182;2023-08-24T12:31:26;33.80;50.80
20066;DHT22;10193;48.884;9.182;2023-08-24T12:34:00;33.90;50.70
20066;DHT22;10193;48.884;9.182;2023-08-24T12:36:36;33.90;50.50
20066;DHT22;10193;48.884;9.182;2023-08-24T12:39:03;34.00;50.60
20066;DHT22;10193;48.884;9.182;2023-08-24T12:41:31;34.10;50.80
20066;DHT22;10193;48.884;9.182;2023-08-24T12:43:58;34.20;50.70
20066;DHT22;10193;48.884;9.182;2023-08-24T12:46:30;34.30;50.70
20066;DHT22;10193;48.884;9.182;2023-08-24T12:48:56;34.40;50.80
20066;DHT22;10193;48.884;9.182;2023-08-24T12:51:24;34.40;50.50
20066;DHT22;10193;48.884;9.182;2023-08-24T12:53:52;34.50;50.10
20066;DHT22;10193;48.884;9.182;2023-08-24T12:56:19;34.60;49.80
20066;DHT22;10193;48.884;9.182;2023-08-24T12:58:45;34.70;49.80
20066;DHT22;10193;48.884;9.182;2023-08-24T13:01:12;34.80;49.80
20066;DHT22;10193;48.884;9.182;2023-08-24T13:03:39;34.90;49.80
20066;DHT22;10193;48.884;9.182;2023-08-24T13:06:05;35.00;49.60
20066;DHT22;10193;48.884;9.182;2023-08-24T13:08:32;35.10;49.70
20066;DHT22;10193;48.884;9.182;2023-08-24T13:11:00;35.20;49.50
20066;DHT22;10193;48.884;9.182;2023-08-24T13:13:27;35.30;49.50
20066;DHT22;10193;48.884;9.182;2023-08-24T13:15:53;35.40;49.20
20066;DHT22;10193;48.884;9.182;2023-08-24T13:18:20;35.50;48.90
20066;DHT22;10193;48.884;9.182;2023-08-24T13:20:47;35.60;48.80
20066;DHT22;10193;48.884;9.182;2023-08-24T13:23:13;35.70;48.80
20066;DHT22;10193;48.884;9.182;2023-08-24T13:25:40;35.70;48.60
20066;DHT22;10193;48.884;9.182;2023-08-24T13:28:08;35.80;48.60
20066;DHT22;10193;48.884;9.182;2023-08-24T13:30:35;35.90;48.40
20066;DHT22;10193;48.884;9.182;2023-08-24T13:33:02;35.90;48.10
20066;DHT22;10193;48.884;9.182;2023-08-24T13:35:28;36.00;48.00
20066;DHT22;10193;48.884;9.182;2023-08-24T13:37:55;36.00;47.50
20066;DHT22;10193;48.884;9.182;2023-08-24T13:40:22;36.10;47.60
20066;DHT22;10193;48.884;9.182;2023-08-24T13:42:48;36.10;47.40
20066;DHT22;10193;48.884;9.182;2023-08-24T13:45:16;36.10;47.20
20066;DHT22;10193;48.884;9.182;2023-08-24T13:47:44;36.10;47.10
20066;DHT22;10193;48.884;9.182;2023-08-24T13:50:11;36.10;46.90
20066;DHT22;10193;48.884;9.182;2023-08-24T13:52:37;36.10;46.60
20066;DHT22;10193;48.884;9.182;2023-08-24T13:55:05;36.10;46.40
20066;DHT22;10193;48.884;9.182;2023-08-24T13:57:32;36.10;46.20
20066;DHT22;10193;48.884;9.182;2023-08-24T13:59:58;36.10;46.00
20066;DHT22;10193;48.884;9.182;2023-08-24T14:02:27;36.10;45.80
20066;DHT22;10193;48.884;9.182;2023-08-24T14:04:54;36.10;45.80
20066;DHT22;10193;48.884;9.182;2023-08-24T14:07:21;36.20;45.70
20066;DHT22;10193;48.884;9.182;2023-08-24T14:09:48;36.20;45.70
20066;DHT22;10193;48.884;9.182;2023-08-24T14:12:14;36.20;45.60
20066;DHT22;10193;48.884;9.182;2023-08-24T14:14:41;36.30;45.40
20066;DHT22;10193;48.884;9.182;2023-08-24T14:17:07;36.30;45.10
20066;DHT22;10193;48.884;9.182;2023-08-24T14:19:36;36.40;44.90
20066;DHT22;10193;48.884;9.182;2023-08-24T14:22:02;36.40;45.00
20066;DHT22;10193;48.884;9.182;2023-08-24T14:24:29;36.40;45.00
20066;DHT22;10193;48.884;9.182;2023-08-24T14:26:56;36.40;44.60
20066;DHT22;10193;48.884;9.182;2023-08-24T14:29:22;36.40;44.40
20066;DHT22;10193;48.884;9.182;2023-08-24T14:31:49;36.50;44.40
20066;DHT22;10193;48.884;9.182;2023-08-24T14:34:18;36.40;44.10
20066;DHT22;10193;48.884;9.182;2023-08-24T14:36:46;36.40;43.90
20066;DHT22;10193;48.884;9.182;2023-08-24T14:39:13;36.40;43.80
20066;DHT22;10193;48.884;9.182;2023-08-24T14:41:40;36.40;43.60
20066;DHT22;10193;48.884;9.182;2023-08-24T14:44:08;36.40;44.10
20066;DHT22;10193;48.884;9.182;2023-08-24T14:46:35;36.30;43.30
20066;DHT22;10193;48.884;9.182;2023-08-24T14:49:02;36.20;43.30
20066;DHT22;10193;48.884;9.182;2023-08-24T14:51:29;36.20;43.20
20066;DHT22;10193;48.884;9.182;2023-08-24T14:53:57;36.10;43.20
20066;DHT22;10193;48.884;9.182;2023-08-24T14:56:23;36.00;43.10
20066;DHT22;10193;48.884;9.182;2023-08-24T14:58:50;35.90;43.20
20066;DHT22;10193;48.884;9.182;2023-08-24T15:01:17;35.80;43.50
20066;DHT22;10193;48.884;9.182;2023-08-24T15:03:43;35.80;43.80
20066;DHT22;10193;48.884;9.182;2023-08-24T15:06:10;35.60;44.10
20066;DHT22;10193;48.884;9.182;2023-08-24T15:08:37;34.90;44.60
20066;DHT22;10193;48.884;9.182;2023-08-24T15:11:05;33.80;45.60
20066;DHT22;10193;48.884;9.182;2023-08-24T15:13:31;32.60;46.40
20066;DHT22;10193;48.884;9.182;2023-08-24T15:15:58;31.30;48.00
20066;DHT22;10193;48.884;9.182;2023-08-24T15:18:26;30.20;50.40
20066;DHT22;10193;48.884;9.182;2023-08-24T15:20:52;29.20;52.10
20066;DHT22;10193;48.884;9.182;2023-08-24T15:23:24;28.40;54.00
20066;DHT22;10193;48.884;9.182;2023-08-24T15:25:52;27.60;55.40
20066;DHT22;10193;48.884;9.182;2023-08-24T15:28:20;26.90;56.10
20066;DHT22;10193;48.884;9.182;2023-08-24T15:30:47;26.20;57.60
20066;DHT22;10193;48.884;9.182;2023-08-24T15:33:14;25.70;59.60